Time;durP1;ratioP1;P1;durP2;ratioP2;P2;SDS_P1;SDS_P2;PMS_P1;PMS_P2;Temp;Humidity;BMP_temperature;BMP_pressure;BME280_temperature;BME280_humidity;BME280_pressure;Samples;Min_cycle;Max_cycle;Signal;HPM_P1;HPM_P2
2024/01/17 00:00:09;;;;;;;5.03;3.75;;;;;;;;;;5067141;28;20101;-73
2024/01/17 00:02:34;;;;;;;5.40;3.88;;;;;;;;;;5069533;28;20040;-73
2024/01/17 00:04:59;;;;;;;6.80;4.25;;;;;;;;;;5042768;28;20060;-73
2024/01/17 00:07:25;;;;;;;7.13;4.18;;;;;;;;;;5074455;28;20078;-73
2024/01/17 00:09:50;;;;;;;5.53;4.05;;;;;;;;;;5053106;28;20085;-73
2024/01/17 00:12:16;;;;;;;5.50;4.05;;;;;;;;;;5083237;28;20044;-74
2024/01/17 00:14:41;;;;;;;5.50;3.83;;;;;;;;;;5086048;28;20369;-74
2024/01/17 00:17:06;;;;;;;5.65;3.72;;;;;;;;;;5086618;28;20079;-74
2024/01/17 00:19:32;;;;;;;6.07;4.00;;;;;;;;;;5084347;28;20040;-74
2024/01/17 00:21:57;;;;;;;6.43;4.18;;;;;;;;;;5084920;28;20039;-74
2024/01/17 00:24:23;;;;;;;6.38;4.00;;;;;;;;;;5058820;28;20499;-74
2024/01/17 00:26:48;;;;;;;6.25;4.15;;;;;;;;;;5058649;28;20032;-74
2024/01/17 00:29:13;;;;;;;6.38;4.20;;;;;;;;;;5081091;28;20037;-74
2024/01/17 00:31:39;;;;;;;5.95;4.43;;;;;;;;;;5059657;28;20081;-74
2024/01/17 00:34:05;;;;;;;6.47;4.57;;;;;;;;;;5085855;28;20388;-74
2024/01/17 00:36:30;;;;;;;6.13;4.20;;;;;;;;;;5051894;28;20499;-74
2024/01/17 00:38:55;;;;;;;6.30;4.68;;;;;;;;;;5062944;28;20044;-73
2024/01/17 00:41:21;;;;;;;6.55;4.70;;;;;;;;;;5039989;28;20064;-74
2024/01/17 00:43:47;;;;;;;5.53;4.28;;;;;;;;;;5062949;28;20483;-73
2024/01/17 00:46:13;;;;;;;5.97;4.30;;;;;;;;;;5051391;28;20041;-73
2024/01/17 00:48:38;;;;;;;6.55;4.70;;;;;;;;;;5084371;28;20494;-75
2024/01/17 00:51:03;;;;;;;6.45;4.53;;;;;;;;;;5076915;28;20552;-74
2024/01/17 00:53:29;;;;;;;7.22;4.28;;;;;;;;;;5083255;28;20095;-73
2024/01/17 00:55:55;;;;;;;7.05;4.65;;;;;;;;;;5085623;28;20506;-73
2024/01/17 00:58:21;;;;;;;6.75;4.22;;;;;;;;;;5069130;28;20116;-73
2024/01/17 01:00:46;;;;;;;7.72;5.03;;;;;;;;;;5063310;28;20535;-73
2024/01/17 01:03:11;;;;;;;7.28;4.85;;;;;;;;;;5038728;28;20016;-75
2024/01/17 01:05:37;;;;;;;6.65;4.60;;;;;;;;;;5076676;28;20028;-74
2024/01/17 01:08:02;;;;;;;6.13;4.70;;;;;;;;;;5051353;28;20092;-74
2024/01/17 01:10:27;;;;;;;6.88;5.00;;;;;;;;;;5080259;28;20115;-74
2024/01/17 01:12:53;;;;;;;6.72;5.13;;;;;;;;;;5070675;28;20043;-74
2024/01/17 01:15:18;;;;;;;7.00;5.13;;;;;;;;;;5076892;28;20043;-74
2024/01/17 01:17:43;;;;;;;6.10;4.80;;;;;;;;;;5077631;28;20478;-74
2024/01/17 01:20:09;;;;;;;7.00;5.20;;;;;;;;;;5070011;28;20527;-74
2024/01/17 01:22:34;;;;;;;7.70;5.20;;;;;;;;;;5081878;28;20474;-74
2024/01/17 01:25:00;;;;;;;6.53;5.25;;;;;;;;;;5065084;28;20054;-74
2024/01/17 01:27:25;;;;;;;8.68;5.38;;;;;;;;;;5067594;28;20032;-74
2024/01/17 01:29:50;;;;;;;7.40;5.03;;;;;;;;;;5060899;28;20032;-74
2024/01/17 01:32:16;;;;;;;7.25;5.22;;;;;;;;;;5047131;28;20028;-74
2024/01/17 01:34:41;;;;;;;8.38;5.57;;;;;;;;;;5073712;28;20047;-74
2024/01/17 01:37:06;;;;;;;7.00;5.25;;;;;;;;;;5079424;28;20708;-74
2024/01/17 01:39:32;;;;;;;6.72;5.15;;;;;;;;;;5075521;28;20108;-74
2024/01/17 01:41:57;;;;;;;7.10;5.28;;;;;;;;;;5072546;28;20017;-74
2024/01/17 01:44:22;;;;;;;7.05;5.65;;;;;;;;;;5056592;28;20024;-74
2024/01/17 01:46:47;;;;;;;7.95;5.75;;;;;;;;;;5081289;28;20012;-74
2024/01/17 01:49:14;;;;;;;8.52;6.05;;;;;;;;;;5073274;28;20028;-74
2024/01/17 01:51:39;;;;;;;7.55;5.53;;;;;;;;;;5053799;28;20060;-73
2024/01/17 01:54:05;;;;;;;7.57;5.47;;;;;;;;;;5076954;28;20028;-73
2024/01/17 01:56:30;;;;;;;8.00;5.90;;;;;;;;;;5077131;28;20028;-73
2024/01/17 01:58:56;;;;;;;6.88;5.53;;;;;;;;;;5056799;28;20029;-72
2024/01/17 02:01:21;;;;;;;8.60;5.80;;;;;;;;;;5059913;28;20020;-73
2024/01/17 02:03:46;;;;;;;8.05;5.88;;;;;;;;;;5057011;28;20020;-73
2024/01/17 02:06:12;;;;;;;8.80;5.82;;;;;;;;;;5061792;28;20027;-72
2024/01/17 02:08:37;;;;;;;9.25;6.28;;;;;;;;;;5053433;28;20059;-73
2024/01/17 02:11:03;;;;;;;8.10;5.97;;;;;;;;;;5082881;28;20028;-72
2024/01/17 02:13:28;;;;;;;8.40;6.10;;;;;;;;;;5088537;28;20012;-72
2024/01/17 02:15:54;;;;;;;9.07;6.63;;;;;;;;;;5061088;28;20015;-73
2024/01/17 02:18:19;;;;;;;9.38;6.78;;;;;;;;;;5053616;28;20013;-73
2024/01/17 02:20:44;;;;;;;8.82;6.72;;;;;;;;;;5081903;28;20122;-73
2024/01/17 02:23:20;;;;;;;8.93;6.35;;;;;;;;;;5066375;28;20053;-73
2024/01/17 02:25:46;;;;;;;8.38;6.57;;;;;;;;;;5081530;28;20142;-73
2024/01/17 02:28:11;;;;;;;8.52;6.47;;;;;;;;;;5055013;28;20115;-73
2024/01/17 02:30:36;;;;;;;9.07;6.68;;;;;;;;;;5083882;28;20054;-73
2024/01/17 02:33:02;;;;;;;8.98;6.63;;;;;;;;;;5089298;28;20157;-73
2024/01/17 02:35:27;;;;;;;8.60;6.32;;;;;;;;;;5066076;28;20036;-73
2024/01/17 02:37:52;;;;;;;9.15;7.10;;;;;;;;;;5070236;28;20028;-73
2024/01/17 02:40:18;;;;;;;9.73;6.78;;;;;;;;;;5069621;28;20032;-73
2024/01/17 02:42:43;;;;;;;8.95;6.60;;;;;;;;;;5066454;28;20112;-73
2024/01/17 02:45:09;;;;;;;10.38;7.10;;;;;;;;;;5053940;28;20157;-73
2024/01/17 02:47:34;;;;;;;9.43;6.75;;;;;;;;;;5055891;28;20032;-73
2024/01/17 02:50:00;;;;;;;9.23;7.18;;;;;;;;;;5085103;28;20063;-73
2024/01/17 02:52:25;;;;;;;9.20;6.82;;;;;;;;;;5076840;28;20039;-72
2024/01/17 02:54:50;;;;;;;10.40;7.32;;;;;;;;;;5077512;28;20036;-73
2024/01/17 02:57:18;;;;;;;9.60;7.22;;;;;;;;;;5074215;28;20455;-72
2024/01/17 02:59:43;;;;;;;11.23;7.93;;;;;;;;;;5061206;28;20418;-72
2024/01/17 03:02:09;;;;;;;11.20;7.95;;;;;;;;;;5070860;28;20037;-72
2024/01/17 03:04:35;;;;;;;9.63;7.47;;;;;;;;;;5083937;28;20024;-73
2024/01/17 03:07:00;;;;;;;10.68;7.72;;;;;;;;;;5063268;28;20043;-73
2024/01/17 03:09:25;;;;;;;10.48;7.70;;;;;;;;;;5069400;28;20031;-73
2024/01/17 03:11:51;;;;;;;10.95;7.93;;;;;;;;;;5074698;28;20197;-73
2024/01/17 03:14:17;;;;;;;9.98;7.53;;;;;;;;;;5065936;28;20040;-73
2024/01/17 03:16:42;;;;;;;11.48;8.20;;;;;;;;;;5070740;28;20083;-72
2024/01/17 03:19:07;;;;;;;9.15;7.38;;;;;;;;;;5078214;28;20039;-72
2024/01/17 03:21:33;;;;;;;10.77;7.88;;;;;;;;;;5062037;28;20039;-73
2024/01/17 03:23:59;;;;;;;10.15;7.05;;;;;;;;;;5087161;28;20111;-74
2024/01/17 03:26:25;;;;;;;10.77;8.13;;;;;;;;;;5091092;28;20024;-74
2024/01/17 03:28:50;;;;;;;10.43;7.82;;;;;;;;;;5088206;28;20557;-73
2024/01/17 03:31:15;;;;;;;11.48;8.30;;;;;;;;;;5069535;28;20040;-73
2024/01/17 03:33:41;;;;;;;10.75;7.97;;;;;;;;;;5087973;28;20035;-73
2024/01/17 03:36:07;;;;;;;11.18;8.15;;;;;;;;;;5068219;28;20044;-73
2024/01/17 03:38:32;;;;;;;11.93;8.48;;;;;;;;;;5052593;28;20059;-72
2024/01/17 03:41:00;;;;;;;10.63;8.65;;;;;;;;;;5084837;28;20111;-73
2024/01/17 03:43:26;;;;;;;12.02;8.60;;;;;;;;;;5059409;28;20086;-73
2024/01/17 03:45:53;;;;;;;11.90;8.43;;;;;;;;;;5062724;28;20627;-74
2024/01/17 03:48:19;;;;;;;10.95;8.57;;;;;;;;;;5052437;28;20041;-74
2024/01/17 03:50:44;;;;;;;10.85;8.13;;;;;;;;;;5087157;28;20439;-75
2024/01/17 03:53:09;;;;;;;11.98;8.43;;;;;;;;;;5062992;28;20039;-72
2024/01/17 03:55:35;;;;;;;13.10;8.88;;;;;;;;;;5087023;28;20122;-72
2024/01/17 03:58:00;;;;;;;10.27;8.23;;;;;;;;;;5053526;28;20028;-72
2024/01/17 04:00:25;;;;;;;11.13;8.45;;;;;;;;;;5066230;28;20462;-74
2024/01/17 04:02:50;;;;;;;11.02;8.43;;;;;;;;;;5081973;28;20040;-73
2024/01/17 04:05:19;;;;;;;11.77;9.00;;;;;;;;;;5068234;28;20056;-73
2024/01/17 04:07:44;;;;;;;11.77;8.50;;;;;;;;;;5043663;28;20115;-73
2024/01/17 04:10:10;;;;;;;12.25;8.98;;;;;;;;;;5087011;28;20144;-72
2024/01/17 04:12:35;;;;;;;12.15;9.15;;;;;;;;;;5067374;28;20514;-73
2024/01/17 04:15:00;;;;;;;11.63;8.77;;;;;;;;;;5077033;28;20153;-73
2024/01/17 04:17:26;;;;;;;13.20;9.30;;;;;;;;;;5057684;28;20044;-73
2024/01/17 04:19:51;;;;;;;12.15;9.02;;;;;;;;;;5055595;28;20036;-73
2024/01/17 04:22:16;;;;;;;11.20;8.65;;;;;;;;;;5060995;28;20113;-73
2024/01/17 04:24:42;;;;;;;11.95;8.82;;;;;;;;;;5056679;28;20062;-73
2024/01/17 04:27:07;;;;;;;11.60;8.90;;;;;;;;;;5054788;28;20059;-73
2024/01/17 04:29:34;;;;;;;12.93;9.25;;;;;;;;;;5068436;28;20044;-73
2024/01/17 04:31:59;;;;;;;11.90;8.77;;;;;;;;;;5054636;28;20032;-73
2024/01/17 04:34:25;;;;;;;12.10;8.88;;;;;;;;;;5066920;28;20111;-73
2024/01/17 04:36:50;;;;;;;12.05;9.00;;;;;;;;;;5049780;28;20119;-73
2024/01/17 04:39:15;;;;;;;12.10;9.05;;;;;;;;;;5064442;28;20028;-73
2024/01/17 04:41:40;;;;;;;12.20;8.93;;;;;;;;;;5064644;28;20028;-71
2024/01/17 04:44:06;;;;;;;11.23;8.85;;;;;;;;;;5045851;28;20039;-73
2024/01/17 04:46:31;;;;;;;11.20;8.75;;;;;;;;;;5082633;28;20032;-73
2024/01/17 04:48:57;;;;;;;10.35;8.48;;;;;;;;;;5084392;28;20028;-73
2024/01/17 04:51:22;;;;;;;11.65;8.88;;;;;;;;;;5067574;28;20469;-73
2024/01/17 04:53:48;;;;;;;10.95;9.07;;;;;;;;;;5046526;28;20479;-73
2024/01/17 04:56:14;;;;;;;11.70;8.88;;;;;;;;;;5063982;28;20499;-73
2024/01/17 04:58:39;;;;;;;13.18;9.07;;;;;;;;;;5078655;28;20032;-76
2024/01/17 05:01:11;;;;;;;11.68;8.60;;;;;;;;;;5064412;28;20135;-70
2024/01/17 05:03:36;;;;;;;12.07;8.98;;;;;;;;;;5081754;28;20036;-72
2024/01/17 05:06:02;;;;;;;11.38;8.82;;;;;;;;;;5080973;28;20043;-72
2024/01/17 05:08:27;;;;;;;12.55;8.98;;;;;;;;;;5076160;28;20054;-71
2024/01/17 05:10:53;;;;;;;12.57;9.48;;;;;;;;;;5085107;28;20053;-72
2024/01/17 05:13:18;;;;;;;12.05;9.80;;;;;;;;;;5083151;28;20039;-71
2024/01/17 05:15:43;;;;;;;12.00;9.18;;;;;;;;;;5062618;28;20052;-71
2024/01/17 05:18:09;;;;;;;12.55;9.23;;;;;;;;;;5067349;28;20039;-71
2024/01/17 05:20:34;;;;;;;9.90;8.10;;;;;;;;;;5064506;28;20473;-72
2024/01/17 05:22:59;;;;;;;11.75;9.15;;;;;;;;;;5061214;28;20028;-73
2024/01/17 05:25:25;;;;;;;11.88;9.27;;;;;;;;;;5056512;28;20055;-73
2024/01/17 05:27:52;;;;;;;10.85;8.98;;;;;;;;;;5083618;28;20036;-72
2024/01/17 05:30:26;;;;;;;11.93;9.65;;;;;;;;;;5067492;28;20032;-73
2024/01/17 05:32:52;;;;;;;12.85;9.70;;;;;;;;;;5072538;28;20965;-71
2024/01/17 05:35:17;;;;;;;12.50;9.57;;;;;;;;;;5057958;28;20451;-72
2024/01/17 05:37:43;;;;;;;13.63;9.60;;;;;;;;;;5075469;28;20036;-73
2024/01/17 05:40:08;;;;;;;11.15;8.82;;;;;;;;;;5077569;28;20534;-73
2024/01/17 05:42:34;;;;;;;12.52;9.52;;;;;;;;;;5077399;28;20028;-72
2024/01/17 05:44:59;;;;;;;12.45;9.45;;;;;;;;;;5079448;28;20032;-73
2024/01/17 05:47:25;;;;;;;11.95;9.07;;;;;;;;;;5083753;28;20076;-73
2024/01/17 05:49:50;;;;;;;11.57;9.07;;;;;;;;;;5081910;28;20036;-72
2024/01/17 05:52:15;;;;;;;12.82;9.32;;;;;;;;;;5078454;28;20722;-72
2024/01/17 05:54:41;;;;;;;10.55;8.93;;;;;;;;;;5060618;28;20032;-72
2024/01/17 05:57:06;;;;;;;12.88;9.13;;;;;;;;;;5078333;28;20444;-74
2024/01/17 05:59:31;;;;;;;12.68;9.95;;;;;;;;;;5080333;28;20111;-73
2024/01/17 06:01:57;;;;;;;12.68;9.35;;;;;;;;;;5081999;28;20051;-72
2024/01/17 06:04:22;;;;;;;11.68;9.10;;;;;;;;;;5081012;28;20044;-71
2024/01/17 06:06:47;;;;;;;12.23;9.18;;;;;;;;;;5080278;28;20036;-72
2024/01/17 06:09:14;;;;;;;12.40;9.20;;;;;;;;;;5081994;28;20283;-72
2024/01/17 06:11:40;;;;;;;12.30;9.15;;;;;;;;;;5079667;28;20028;-71
2024/01/17 06:14:06;;;;;;;12.43;9.05;;;;;;;;;;5061718;28;22156;-73
2024/01/17 06:16:31;;;;;;;11.63;8.75;;;;;;;;;;5078028;28;20116;-72
2024/01/17 06:18:59;;;;;;;11.52;8.63;;;;;;;;;;5081345;28;20046;-71
2024/01/17 06:21:24;;;;;;;10.63;8.82;;;;;;;;;;5080900;28;20069;-72
2024/01/17 06:23:51;;;;;;;12.88;9.45;;;;;;;;;;5082600;28;20863;-72
2024/01/17 06:26:16;;;;;;;12.10;8.75;;;;;;;;;;5082002;28;20115;-73
2024/01/17 06:28:42;;;;;;;11.20;9.02;;;;;;;;;;5081703;28;20140;-72
2024/01/17 06:31:07;;;;;;;11.40;8.90;;;;;;;;;;5078656;28;20075;-71
2024/01/17 06:33:32;;;;;;;10.85;8.77;;;;;;;;;;5081063;28;20031;-72
2024/01/17 06:35:58;;;;;;;11.45;8.65;;;;;;;;;;5079722;28;20024;-71
2024/01/17 06:38:23;;;;;;;12.25;8.98;;;;;;;;;;5080110;28;20036;-71
2024/01/17 06:40:48;;;;;;;12.02;9.30;;;;;;;;;;5080504;28;20060;-70
2024/01/17 06:43:14;;;;;;;13.70;10.60;;;;;;;;;;5080997;28;20117;-70
2024/01/17 06:45:39;;;;;;;11.88;9.13;;;;;;;;;;5078790;28;20120;-72
2024/01/17 06:48:05;;;;;;;10.73;8.85;;;;;;;;;;5079567;28;20032;-70
2024/01/17 06:50:30;;;;;;;12.52;9.10;;;;;;;;;;5058979;28;20032;-72
2024/01/17 06:52:55;;;;;;;12.18;8.98;;;;;;;;;;5079217;28;20032;-70
2024/01/17 06:55:20;;;;;;;11.50;8.63;;;;;;;;;;5062677;28;20040;-71
2024/01/17 06:57:46;;;;;;;13.98;8.82;;;;;;;;;;5080260;28;20048;-69
2024/01/17 07:00:13;;;;;;;12.27;8.40;;;;;;;;;;5079308;28;20047;-72
2024/01/17 07:02:39;;;;;;;11.10;8.00;;;;;;;;;;5080254;28;20123;-72
2024/01/17 07:05:05;;;;;;;11.20;7.82;;;;;;;;;;5079304;28;20437;-68
2024/01/17 07:07:30;;;;;;;11.10;8.18;;;;;;;;;;5079429;28;20035;-70
2024/01/17 07:09:56;;;;;;;10.55;8.20;;;;;;;;;;5080656;28;20422;-70
2024/01/17 07:12:21;;;;;;;10.98;8.15;;;;;;;;;;5078798;28;20139;-70
2024/01/17 07:14:48;;;;;;;10.70;8.20;;;;;;;;;;5078732;28;20111;-69
2024/01/17 07:17:13;;;;;;;10.50;7.82;;;;;;;;;;5081158;28;20482;-70
2024/01/17 07:19:39;;;;;;;10.88;7.85;;;;;;;;;;5080364;28;20032;-70
2024/01/17 07:22:04;;;;;;;10.77;8.05;;;;;;;;;;5079748;28;20034;-73
2024/01/17 07:24:29;;;;;;;10.55;7.80;;;;;;;;;;5080484;28;20441;-71
2024/01/17 07:26:55;;;;;;;10.75;7.55;;;;;;;;;;5079070;28;20039;-71
2024/01/17 07:29:20;;;;;;;10.70;7.68;;;;;;;;;;5060670;28;20036;-72
2024/01/17 07:31:45;;;;;;;9.10;7.55;;;;;;;;;;5079879;28;20559;-72
2024/01/17 07:34:11;;;;;;;10.52;7.78;;;;;;;;;;5079416;28;20044;-72
2024/01/17 07:36:36;;;;;;;10.00;7.55;;;;;;;;;;5077429;28;20360;-72
2024/01/17 07:39:02;;;;;;;9.52;7.00;;;;;;;;;;5059218;28;20048;-72
2024/01/17 07:41:29;;;;;;;10.65;7.93;;;;;;;;;;5078442;28;20048;-72
2024/01/17 07:43:55;;;;;;;10.80;7.25;;;;;;;;;;5081804;28;20032;-72
2024/01/17 07:46:20;;;;;;;10.75;8.10;;;;;;;;;;5078278;28;20411;-71
2024/01/17 07:48:46;;;;;;;10.63;7.55;;;;;;;;;;5078356;28;20028;-78
2024/01/17 07:51:11;;;;;;;10.82;6.95;;;;;;;;;;5077570;28;20399;-73
2024/01/17 07:53:37;;;;;;;9.48;7.50;;;;;;;;;;5075989;28;20117;-73
2024/01/17 07:56:04;;;;;;;9.70;7.10;;;;;;;;;;5078030;28;20417;-73
2024/01/17 07:58:29;;;;;;;12.10;7.40;;;;;;;;;;5059487;28;20115;-74
2024/01/17 08:00:55;;;;;;;9.52;6.80;;;;;;;;;;5063370;28;20161;-73
2024/01/17 08:03:20;;;;;;;9.05;6.75;;;;;;;;;;5059234;28;20182;-73
2024/01/17 08:05:46;;;;;;;8.90;6.82;;;;;;;;;;5077915;28;20534;-75
2024/01/17 08:08:11;;;;;;;10.18;7.07;;;;;;;;;;5077086;28;20039;-73
2024/01/17 08:10:37;;;;;;;8.88;6.78;;;;;;;;;;5078359;28;20028;-73
2024/01/17 08:13:03;;;;;;;10.57;7.28;;;;;;;;;;5077055;28;20372;-73
2024/01/17 08:15:28;;;;;;;9.45;7.35;;;;;;;;;;5077729;28;20040;-73
2024/01/17 08:17:54;;;;;;;8.45;7.18;;;;;;;;;;5077917;28;20032;-73
2024/01/17 08:20:20;;;;;;;10.75;7.43;;;;;;;;;;5064049;28;20044;-73
2024/01/17 08:22:45;;;;;;;10.10;7.65;;;;;;;;;;5083398;28;20059;-74
2024/01/17 08:25:11;;;;;;;10.32;7.45;;;;;;;;;;5084588;28;20121;-73
2024/01/17 08:27:36;;;;;;;10.32;7.47;;;;;;;;;;5066172;28;20459;-73
2024/01/17 08:30:04;;;;;;;10.13;7.72;;;;;;;;;;5065542;28;20427;-74
2024/01/17 08:32:29;;;;;;;10.82;7.85;;;;;;;;;;5084366;28;20051;-73
2024/01/17 08:34:55;;;;;;;9.77;7.10;;;;;;;;;;5084058;28;20024;-73
2024/01/17 08:37:21;;;;;;;10.00;7.43;;;;;;;;;;5081111;28;20043;-73
2024/01/17 08:39:46;;;;;;;10.63;7.60;;;;;;;;;;5082268;28;20032;-73
2024/01/17 08:42:12;;;;;;;9.63;7.47;;;;;;;;;;5082556;28;20029;-74
2024/01/17 08:44:39;;;;;;;10.52;8.05;;;;;;;;;;5083329;28;20410;-74
2024/01/17 08:47:07;;;;;;;9.48;7.20;;;;;;;;;;5080090;28;20534;-74
2024/01/17 08:49:32;;;;;;;10.38;7.65;;;;;;;;;;5077838;28;20379;-74
2024/01/17 08:51:57;;;;;;;10.52;7.68;;;;;;;;;;5059812;28;20047;-73
2024/01/17 08:54:25;;;;;;;10.18;7.40;;;;;;;;;;5082282;28;20122;-73
2024/01/17 08:56:50;;;;;;;9.25;7.50;;;;;;;;;;5079478;28;20047;-74
2024/01/17 08:59:16;;;;;;;9.90;7.88;;;;;;;;;;5079098;28;20085;-75
2024/01/17 09:01:41;;;;;;;9.93;7.55;;;;;;;;;;5083215;28;20052;-74
2024/01/17 09:04:07;;;;;;;10.75;7.78;;;;;;;;;;5082572;28;20036;-75
2024/01/17 09:06:32;;;;;;;9.90;7.55;;;;;;;;;;5081865;28;20539;-74
2024/01/17 09:08:57;;;;;;;9.38;7.20;;;;;;;;;;5060229;28;20027;-74
2024/01/17 09:11:23;;;;;;;11.02;7.78;;;;;;;;;;5079190;28;20035;-74
2024/01/17 09:13:48;;;;;;;9.15;7.70;;;;;;;;;;5062151;28;20394;-74
2024/01/17 09:16:14;;;;;;;10.23;7.90;;;;;;;;;;5077832;28;20470;-74
2024/01/17 09:18:39;;;;;;;9.43;7.80;;;;;;;;;;5083910;28;20024;-72
2024/01/17 09:21:05;;;;;;;10.07;7.55;;;;;;;;;;5068199;28;20054;-73
2024/01/17 09:23:31;;;;;;;10.35;7.65;;;;;;;;;;5068577;28;20019;-73
2024/01/17 09:25:57;;;;;;;9.25;7.45;;;;;;;;;;5068687;28;20024;-73
2024/01/17 09:28:22;;;;;;;10.15;8.02;;;;;;;;;;5074534;28;20031;-74
2024/01/17 09:30:48;;;;;;;11.15;7.40;;;;;;;;;;5070537;28;20036;-74
2024/01/17 09:33:13;;;;;;;9.65;7.78;;;;;;;;;;5073188;28;20020;-74
2024/01/17 09:35:42;;;;;;;11.65;8.07;;;;;;;;;;5068046;28;20028;-73
2024/01/17 09:38:08;;;;;;;10.13;7.88;;;;;;;;;;5064052;28;20487;-73
2024/01/17 09:40:33;;;;;;;11.48;8.40;;;;;;;;;;5057321;28;20090;-72
2024/01/17 09:46:20;;;;;;;10.95;8.48;;;;;;;;;;5076941;28;20043;-75
2024/01/17 09:48:45;;;;;;;10.30;8.15;;;;;;;;;;5076506;28;20036;-76
2024/01/17 09:51:12;;;;;;;15.63;7.47;;;;;;;;;;5075330;28;20032;-78
2024/01/17 09:53:37;;;;;;;10.57;7.85;;;;;;;;;;5079922;28;20036;-77
2024/01/17 09:56:03;;;;;;;10.77;7.88;;;;;;;;;;5064361;28;20037;-80
2024/01/17 09:58:31;;;;;;;10.05;7.68;;;;;;;;;;5080564;28;20035;-76
2024/01/17 10:00:56;;;;;;;11.02;7.80;;;;;;;;;;5081760;28;20043;-75
2024/01/17 10:03:22;;;;;;;9.55;7.50;;;;;;;;;;5064600;28;20088;-76
2024/01/17 10:05:50;;;;;;;11.50;7.75;;;;;;;;;;5072975;28;20048;-76
2024/01/17 10:08:16;;;;;;;9.95;7.22;;;;;;;;;;5061476;28;20028;-75
2024/01/17 10:10:42;;;;;;;10.00;7.32;;;;;;;;;;5076914;28;20048;-75
2024/01/17 10:13:07;;;;;;;10.52;7.35;;;;;;;;;;5078056;28;20050;-75
2024/01/17 10:15:32;;;;;;;12.55;7.68;;;;;;;;;;5081033;28;22092;-76
2024/01/17 10:17:58;;;;;;;13.60;7.55;;;;;;;;;;5083471;28;20044;-76
2024/01/17 10:20:23;;;;;;;14.88;7.72;;;;;;;;;;5079307;28;20086;-74
2024/01/17 10:22:49;;;;;;;10.40;7.10;;;;;;;;;;5079809;28;20672;-75
2024/01/17 10:25:14;;;;;;;15.25;9.02;;;;;;;;;;5077718;28;20042;-80
2024/01/17 10:27:39;;;;;;;17.75;9.02;;;;;;;;;;5077675;28;20044;-77
2024/01/17 10:30:05;;;;;;;15.85;8.85;;;;;;;;;;5048131;28;20101;-75
2024/01/17 10:32:31;;;;;;;14.10;8.25;;;;;;;;;;5082331;28;20033;-75
2024/01/17 10:34:56;;;;;;;13.73;8.20;;;;;;;;;;5081755;28;20107;-76
2024/01/17 10:37:22;;;;;;;12.63;8.07;;;;;;;;;;5083962;28;20039;-76
2024/01/17 10:40:05;;;;;;;12.55;7.70;;;;;;;;;;5059676;28;20081;-76
2024/01/17 10:42:30;;;;;;;12.32;7.93;;;;;;;;;;5081707;28;20095;-75
2024/01/17 10:44:56;;;;;;;11.75;8.35;;;;;;;;;;5082908;28;20514;-87
2024/01/17 10:47:21;;;;;;;13.18;7.40;;;;;;;;;;5062282;28;20020;-74
2024/01/17 10:49:46;;;;;;;14.77;8.02;;;;;;;;;;5082997;28;20155;-76
2024/01/17 10:52:14;;;;;;;13.25;8.05;;;;;;;;;;5081122;28;20050;-76
2024/01/17 10:54:45;;;;;;;12.95;8.23;;;;;;;;;;5083262;28;20036;-77
2024/01/17 10:57:11;;;;;;;10.65;7.20;;;;;;;;;;5085427;28;20119;-78
2024/01/17 10:59:38;;;;;;;11.60;7.63;;;;;;;;;;5082665;28;20123;-76
2024/01/17 11:02:04;;;;;;;10.82;7.75;;;;;;;;;;5079666;28;20039;-76
2024/01/17 11:04:30;;;;;;;11.35;8.27;;;;;;;;;;5087198;28;20051;-76
2024/01/17 11:06:55;;;;;;;12.32;8.32;;;;;;;;;;5083870;28;20352;-76
2024/01/17 11:09:21;;;;;;;10.93;8.05;;;;;;;;;;5065110;28;20028;-76
2024/01/17 11:11:47;;;;;;;10.43;8.43;;;;;;;;;;5080185;28;20517;-76
2024/01/17 11:14:12;;;;;;;11.32;7.93;;;;;;;;;;5080493;28;20036;-75
2024/01/17 11:16:38;;;;;;;11.40;7.28;;;;;;;;;;5061506;28;20040;-74
2024/01/17 11:19:04;;;;;;;10.75;7.97;;;;;;;;;;5063464;28;20356;-75
2024/01/17 11:21:29;;;;;;;10.73;7.65;;;;;;;;;;5078852;28;20024;-73
2024/01/17 11:24:08;;;;;;;11.32;8.27;;;;;;;;;;5079023;28;20568;-74
2024/01/17 11:26:55;;;;;;;10.23;7.82;;;;;;;;;;5080430;28;20233;-73
2024/01/17 11:29:25;;;;;;;11.93;7.68;;;;;;;;;;5079450;28;20152;-74
2024/01/17 11:31:59;;;;;;;10.85;8.07;;;;;;;;;;5078684;28;20189;-74
2024/01/17 11:34:24;;;;;;;10.38;7.50;;;;;;;;;;5077843;28;20032;-74
2024/01/17 11:36:50;;;;;;;10.48;7.50;;;;;;;;;;5080324;28;20039;-74
2024/01/17 11:39:18;;;;;;;11.73;8.20;;;;;;;;;;5081055;28;21993;-74
2024/01/17 11:41:44;;;;;;;10.57;7.90;;;;;;;;;;5077002;28;20140;-74
2024/01/17 11:44:10;;;;;;;10.02;8.02;;;;;;;;;;5077852;28;20036;-75
2024/01/17 11:46:36;;;;;;;11.02;7.85;;;;;;;;;;5064038;28;20028;-75
2024/01/17 11:49:02;;;;;;;9.63;7.60;;;;;;;;;;5078901;28;20112;-76
2024/01/17 11:51:28;;;;;;;10.75;7.75;;;;;;;;;;5079761;28;20037;-77
2024/01/17 11:53:53;;;;;;;10.02;7.80;;;;;;;;;;5080200;28;20028;-77
2024/01/17 11:56:22;;;;;;;10.20;7.50;;;;;;;;;;5080670;28;20918;-76
2024/01/17 11:58:49;;;;;;;10.33;7.87;;;;;;;;;;5077487;28;20129;-77
2024/01/17 12:01:18;;;;;;;10.05;7.68;;;;;;;;;;5079520;28;20121;-76
2024/01/17 12:03:43;;;;;;;10.40;7.57;;;;;;;;;;5081786;28;20429;-76
2024/01/17 12:06:09;;;;;;;10.07;7.47;;;;;;;;;;5079523;28;20111;-76
2024/01/17 12:08:35;;;;;;;11.50;7.68;;;;;;;;;;5080198;28;20036;-76
2024/01/17 12:11:01;;;;;;;10.32;7.60;;;;;;;;;;5079515;28;20066;-77
2024/01/17 12:13:26;;;;;;;10.10;7.38;;;;;;;;;;5078270;28;20067;-76
2024/01/17 12:15:53;;;;;;;11.20;7.97;;;;;;;;;;5058914;28;20136;-77
2024/01/17 12:18:20;;;;;;;11.40;8.35;;;;;;;;;;5081787;28;20039;-76
2024/01/17 12:20:45;;;;;;;11.05;7.95;;;;;;;;;;5081548;28;20039;-77
2024/01/17 12:23:11;;;;;;;11.63;8.20;;;;;;;;;;5081958;28;20131;-76
2024/01/17 12:25:38;;;;;;;10.73;7.40;;;;;;;;;;5078314;28;20044;-76
2024/01/17 12:28:03;;;;;;;9.70;7.57;;;;;;;;;;5081267;28;20039;-75
2024/01/17 12:30:29;;;;;;;10.55;7.88;;;;;;;;;;5080258;28;20443;-76
2024/01/17 12:32:54;;;;;;;11.55;7.80;;;;;;;;;;5077629;28;20064;-76
2024/01/17 12:35:20;;;;;;;11.00;7.93;;;;;;;;;;5059746;28;20046;-75
2024/01/17 12:37:46;;;;;;;11.10;8.10;;;;;;;;;;5076743;28;20035;-75
2024/01/17 12:40:12;;;;;;;10.30;7.72;;;;;;;;;;5083238;28;20052;-75
2024/01/17 12:42:37;;;;;;;10.70;7.72;;;;;;;;;;5079304;28;20517;-75
2024/01/17 12:45:02;;;;;;;9.00;7.57;;;;;;;;;;5055324;28;20617;-75
2024/01/17 12:47:28;;;;;;;12.18;8.70;;;;;;;;;;5079380;28;20740;-74
2024/01/17 12:49:53;;;;;;;12.20;8.23;;;;;;;;;;5078224;28;20036;-75
2024/01/17 12:52:19;;;;;;;13.88;8.85;;;;;;;;;;5077417;28;20045;-75
2024/01/17 12:54:44;;;;;;;11.75;9.07;;;;;;;;;;5081258;28;20457;-75
2024/01/17 12:57:10;;;;;;;11.75;8.82;;;;;;;;;;5079211;28;20055;-74
2024/01/17 12:59:35;;;;;;;11.73;8.98;;;;;;;;;;5065167;28;20036;-74
2024/01/17 13:02:00;;;;;;;11.10;8.43;;;;;;;;;;5073784;28;20455;-75
2024/01/17 13:04:26;;;;;;;14.00;9.40;;;;;;;;;;5075964;28;20051;-74
2024/01/17 13:06:52;;;;;;;10.85;8.38;;;;;;;;;;5074271;28;20103;-74
2024/01/17 13:09:18;;;;;;;12.05;8.65;;;;;;;;;;5066978;28;20092;-75
2024/01/17 13:11:50;;;;;;;13.45;8.50;;;;;;;;;;5089161;28;20500;-75
2024/01/17 13:14:16;;;;;;;11.45;8.40;;;;;;;;;;5070906;28;20024;-75
2024/01/17 13:16:42;;;;;;;13.88;8.02;;;;;;;;;;5072122;28;20089;-75
2024/01/17 13:19:08;;;;;;;12.80;8.30;;;;;;;;;;5089043;28;20747;-74
2024/01/17 13:21:33;;;;;;;12.15;7.68;;;;;;;;;;5072065;28;20028;-75
2024/01/17 13:24:02;;;;;;;11.85;7.85;;;;;;;;;;5077945;28;20036;-74
2024/01/17 13:26:29;;;;;;;11.23;7.38;;;;;;;;;;5085708;28;20119;-74
2024/01/17 13:28:56;;;;;;;11.63;7.60;;;;;;;;;;5067034;28;20510;-75
2024/01/17 13:31:22;;;;;;;10.95;7.63;;;;;;;;;;5084969;28;20104;-74
2024/01/17 13:33:49;;;;;;;11.27;7.75;;;;;;;;;;5067151;28;20135;-75
2024/01/17 13:36:15;;;;;;;9.98;7.45;;;;;;;;;;5074285;28;20062;-76
2024/01/17 13:38:41;;;;;;;11.18;7.65;;;;;;;;;;5052134;28;20032;-74
2024/01/17 13:41:07;;;;;;;9.88;7.65;;;;;;;;;;5068133;28;20044;-75
2024/01/17 13:43:32;;;;;;;9.02;7.00;;;;;;;;;;5084745;28;20445;-74
2024/01/17 13:45:57;;;;;;;11.68;7.63;;;;;;;;;;5087829;28;20040;-73
2024/01/17 13:48:23;;;;;;;11.77;7.93;;;;;;;;;;5075405;28;20036;-74
2024/01/17 13:50:48;;;;;;;12.35;7.38;;;;;;;;;;5059422;28;20036;-77
2024/01/17 13:53:31;;;;;;;11.73;7.90;;;;;;;;;;5068159;28;20046;-74
2024/01/17 13:55:57;;;;;;;10.20;7.18;;;;;;;;;;5081287;28;20044;-70
2024/01/17 13:58:22;;;;;;;11.18;7.43;;;;;;;;;;5075202;28;20071;-71
2024/01/17 14:00:48;;;;;;;9.82;6.88;;;;;;;;;;5078257;28;20138;-71
2024/01/17 14:03:14;;;;;;;11.45;7.55;;;;;;;;;;5073263;28;20093;-74
2024/01/17 14:05:39;;;;;;;10.38;7.05;;;;;;;;;;5087123;28;20044;-75
2024/01/17 14:08:06;;;;;;;9.80;7.20;;;;;;;;;;5071626;28;20115;-75
2024/01/17 14:10:31;;;;;;;11.02;6.88;;;;;;;;;;5078910;28;20044;-75
2024/01/17 14:12:59;;;;;;;10.77;6.90;;;;;;;;;;5080248;28;20039;-75
2024/01/17 14:15:25;;;;;;;9.75;6.60;;;;;;;;;;5086304;28;20339;-75
2024/01/17 14:17:51;;;;;;;9.93;6.72;;;;;;;;;;5086991;28;20058;-75
2024/01/17 14:20:19;;;;;;;8.75;6.15;;;;;;;;;;5085357;28;20032;-75
2024/01/17 14:22:46;;;;;;;9.95;6.90;;;;;;;;;;5051670;28;20032;-75
2024/01/17 14:25:14;;;;;;;9.23;6.97;;;;;;;;;;5084565;28;20037;-74
2024/01/17 14:27:40;;;;;;;10.25;7.20;;;;;;;;;;5088976;28;20182;-75